Time;durP1;ratioP1;P1;durP2;ratioP2;P2;SDS_P1;SDS_P2;PMS_P1;PMS_P2;Temp;Humidity;BMP_temperature;BMP_pressure;BME280_temperature;BME280_humidity;BME280_pressure;Samples;Min_cycle;Max_cycle;Signal;HPM_P1;HPM_P2
2023/05/24 00:02:12;;;;;;;23.77;10.50;;;;;;;;;;6215944;23;20501;-85
2023/05/24 00:04:39;;;;;;;18.42;10.18;;;;;;;;;;6215785;23;20020;-86
2023/05/24 00:07:05;;;;;;;16.38;9.70;;;;;;;;;;6225349;23;20420;-86
2023/05/24 00:09:31;;;;;;;17.02;9.65;;;;;;;;;;6216482;23;20062;-86
2023/05/24 00:11:57;;;;;;;25.52;10.35;;;;;;;;;;6214869;23;20075;-86
2023/05/24 00:14:22;;;;;;;20.20;9.52;;;;;;;;;;6214355;23;20454;-86
2023/05/24 00:16:47;;;;;;;28.48;10.55;;;;;;;;;;6215862;23;20436;-86
2023/05/24 00:19:17;;;;;;;18.65;9.93;;;;;;;;;;6215643;23;20043;-86
2023/05/24 00:21:46;;;;;;;29.60;10.30;;;;;;;;;;6215599;23;20431;-86
2023/05/24 00:24:12;;;;;;;17.10;9.38;;;;;;;;;;6190011;23;20408;-85
2023/05/24 00:26:37;;;;;;;15.70;9.10;;;;;;;;;;6213730;23;20054;-86
2023/05/24 00:29:03;;;;;;;19.00;9.63;;;;;;;;;;6214853;23;20459;-86
2023/05/24 00:31:28;;;;;;;19.20;9.75;;;;;;;;;;6214974;23;20083;-86
2023/05/24 00:33:54;;;;;;;28.58;10.02;;;;;;;;;;6215480;23;20001;-85
2023/05/24 00:36:19;;;;;;;17.60;9.23;;;;;;;;;;6215314;23;20009;-86
2023/05/24 00:38:45;;;;;;;18.13;9.90;;;;;;;;;;6215326;23;20012;-86
2023/05/24 00:41:11;;;;;;;16.50;9.98;;;;;;;;;;6215145;23;20007;-86
2023/05/24 00:43:36;;;;;;;18.48;9.77;;;;;;;;;;6215203;23;20007;-86
2023/05/24 00:46:19;;;;;;;18.40;9.43;;;;;;;;;;6213848;23;20063;-86
2023/05/24 00:48:44;;;;;;;21.38;10.10;;;;;;;;;;6215155;23;20035;-85
2023/05/24 00:51:11;;;;;;;24.48;9.68;;;;;;;;;;6215231;23;20005;-87
2023/05/24 00:53:36;;;;;;;18.23;10.07;;;;;;;;;;6215893;23;20000;-86
2023/05/24 00:56:02;;;;;;;16.30;9.38;;;;;;;;;;6189437;23;20114;-86
2023/05/24 00:58:29;;;;;;;18.88;9.20;;;;;;;;;;6214184;23;20000;-85
2023/05/24 01:00:59;;;;;;;22.20;9.25;;;;;;;;;;6189598;23;20001;-86
2023/05/24 01:03:28;;;;;;;17.83;9.77;;;;;;;;;;6214298;23;20340;-85
2023/05/24 01:06:03;;;;;;;19.92;9.32;;;;;;;;;;6213390;23;20088;-84
2023/05/24 01:08:38;;;;;;;21.33;9.48;;;;;;;;;;6213864;23;20000;-85
2023/05/24 01:11:07;;;;;;;20.13;9.90;;;;;;;;;;6215151;23;20003;-85
2023/05/24 01:13:47;;;;;;;23.45;9.35;;;;;;;;;;6189514;23;20344;-86
2023/05/24 01:16:18;;;;;;;25.63;10.02;;;;;;;;;;6213200;23;20044;-86
2023/05/24 01:18:46;;;;;;;23.35;10.50;;;;;;;;;;6188780;23;20348;-86
2023/05/24 01:21:12;;;;;;;25.75;10.00;;;;;;;;;;6213756;23;20008;-86
2023/05/24 01:23:43;;;;;;;26.90;10.98;;;;;;;;;;6215438;23;20000;-86
2023/05/24 01:26:45;;;;;;;19.88;10.57;;;;;;;;;;6213684;23;20008;-86
2023/05/24 01:29:10;;;;;;;23.20;10.65;;;;;;;;;;6166565;23;20001;-86
2023/05/24 01:31:35;;;;;;;24.60;10.80;;;;;;;;;;6188905;23;20459;-85
2023/05/24 01:34:01;;;;;;;23.58;10.93;;;;;;;;;;6188144;23;20000;-85
2023/05/24 01:36:26;;;;;;;21.02;10.43;;;;;;;;;;6215154;23;20009;-85
2023/05/24 01:38:52;;;;;;;21.13;10.45;;;;;;;;;;6215107;23;20035;-85
2023/05/24 01:41:22;;;;;;;24.35;9.95;;;;;;;;;;6214877;23;20055;-85
2023/05/24 01:44:11;;;;;;;24.52;11.30;;;;;;;;;;6213947;23;20025;-85
2023/05/24 01:46:37;;;;;;;22.70;10.57;;;;;;;;;;6212699;23;20047;-85
2023/05/24 01:49:21;;;;;;;20.60;11.07;;;;;;;;;;6187837;23;20321;-84
2023/05/24 01:51:53;;;;;;;21.00;9.93;;;;;;;;;;6214612;23;20004;-85
2023/05/24 01:54:20;;;;;;;19.05;10.27;;;;;;;;;;6213632;23;20001;-85
2023/05/24 01:56:45;;;;;;;21.58;9.85;;;;;;;;;;6213505;23;20031;-85
2023/05/24 01:59:10;;;;;;;21.65;10.38;;;;;;;;;;6193130;23;20001;-86
2023/05/24 02:01:36;;;;;;;29.05;11.07;;;;;;;;;;6204623;23;20036;-86
2023/05/24 02:04:01;;;;;;;21.67;10.45;;;;;;;;;;6203460;23;19997;-85
2023/05/24 02:06:27;;;;;;;24.88;10.75;;;;;;;;;;6205635;23;20011;-86
2023/05/24 02:08:52;;;;;;;23.35;11.45;;;;;;;;;;6233505;23;20000;-86
2023/05/24 02:11:17;;;;;;;26.42;11.38;;;;;;;;;;6230802;23;20005;-86
2023/05/24 02:13:43;;;;;;;28.25;10.65;;;;;;;;;;6238469;23;20000;-85
2023/05/24 02:16:09;;;;;;;21.98;11.13;;;;;;;;;;6228137;23;20423;-86
2023/05/24 02:18:34;;;;;;;19.30;10.65;;;;;;;;;;6217823;23;20004;-86
2023/05/24 02:21:01;;;;;;;22.75;10.82;;;;;;;;;;6215325;23;20412;-85
2023/05/24 02:23:26;;;;;;;18.80;10.70;;;;;;;;;;6212891;23;20063;-85
2023/05/24 02:25:52;;;;;;;23.83;10.35;;;;;;;;;;6213423;23;20001;-85
2023/05/24 02:28:17;;;;;;;20.55;9.98;;;;;;;;;;6214492;23;20077;-87
2023/05/24 02:30:43;;;;;;;18.52;10.18;;;;;;;;;;6214535;23;20016;-85
2023/05/24 02:33:10;;;;;;;20.65;10.68;;;;;;;;;;6214368;23;20385;-86
2023/05/24 02:35:35;;;;;;;22.80;11.27;;;;;;;;;;6214487;23;20000;-86
2023/05/24 02:38:05;;;;;;;24.02;11.10;;;;;;;;;;6213063;23;20004;-86
2023/05/24 02:40:32;;;;;;;21.55;11.43;;;;;;;;;;6212644;23;20142;-86
2023/05/24 02:42:57;;;;;;;20.42;10.82;;;;;;;;;;6187789;23;20436;-86
2023/05/24 02:45:22;;;;;;;21.48;11.25;;;;;;;;;;6214131;23;20008;-85
2023/05/24 02:47:48;;;;;;;23.23;11.68;;;;;;;;;;6215003;23;20015;-85
2023/05/24 02:50:13;;;;;;;28.45;11.48;;;;;;;;;;6214684;23;20008;-86
2023/05/24 02:52:39;;;;;;;25.30;11.00;;;;;;;;;;6212313;23;20012;-86
2023/05/24 02:55:05;;;;;;;22.42;11.10;;;;;;;;;;6214073;23;20000;-85
2023/05/24 02:57:32;;;;;;;21.75;10.80;;;;;;;;;;6213884;23;20092;-86
2023/05/24 02:59:58;;;;;;;25.90;11.50;;;;;;;;;;6212361;23;20442;-86
2023/05/24 03:02:27;;;;;;;20.50;11.15;;;;;;;;;;6187114;23;20028;-86
2023/05/24 03:04:52;;;;;;;29.15;11.38;;;;;;;;;;6213736;23;20424;-85
2023/05/24 03:07:20;;;;;;;23.17;11.20;;;;;;;;;;6188127;23;20463;-85
2023/05/24 03:09:46;;;;;;;23.20;10.30;;;;;;;;;;6213789;23;20051;-86
2023/05/24 03:12:12;;;;;;;22.98;11.18;;;;;;;;;;6212594;23;20008;-85
2023/05/24 03:14:38;;;;;;;25.58;12.05;;;;;;;;;;6213985;23;20013;-85
2023/05/24 03:17:03;;;;;;;30.58;11.43;;;;;;;;;;6215123;23;20085;-86
2023/05/24 03:19:29;;;;;;;25.60;11.88;;;;;;;;;;6212354;23;20000;-85
2023/05/24 03:21:54;;;;;;;25.15;11.68;;;;;;;;;;6213660;23;20020;-85
2023/05/24 03:24:20;;;;;;;23.42;12.40;;;;;;;;;;6212750;23;20032;-85
2023/05/24 03:26:45;;;;;;;24.08;12.20;;;;;;;;;;6187653;23;20042;-87
2023/05/24 03:29:11;;;;;;;27.15;12.25;;;;;;;;;;6212498;23;20008;-85
2023/05/24 03:31:37;;;;;;;24.92;11.90;;;;;;;;;;6213620;23;20411;-85
2023/05/24 03:34:02;;;;;;;29.30;12.07;;;;;;;;;;6214023;23;20001;-85
2023/05/24 03:36:28;;;;;;;23.38;11.23;;;;;;;;;;6213915;23;20435;-86
2023/05/24 03:38:54;;;;;;;26.25;12.05;;;;;;;;;;6214258;23;20000;-85
2023/05/24 03:41:19;;;;;;;36.38;12.95;;;;;;;;;;6212642;23;20000;-85
2023/05/24 03:43:45;;;;;;;24.25;12.02;;;;;;;;;;6212349;23;20062;-86
2023/05/24 03:46:12;;;;;;;22.88;11.20;;;;;;;;;;6213910;23;20064;-85
2023/05/24 03:48:37;;;;;;;31.95;11.90;;;;;;;;;;6225745;23;20005;-85
2023/05/24 03:51:02;;;;;;;27.73;11.98;;;;;;;;;;6228058;23;20012;-85
2023/05/24 03:53:28;;;;;;;20.17;11.57;;;;;;;;;;6214095;23;20084;-85
2023/05/24 03:55:54;;;;;;;22.23;11.57;;;;;;;;;;6212433;23;20035;-86
2023/05/24 03:58:19;;;;;;;28.20;11.60;;;;;;;;;;6214171;23;20336;-85
2023/05/24 04:00:44;;;;;;;22.50;11.80;;;;;;;;;;6213800;23;20004;-85
2023/05/24 04:03:11;;;;;;;22.65;11.63;;;;;;;;;;6214246;23;20388;-86
2023/05/24 04:05:36;;;;;;;24.45;11.15;;;;;;;;;;6215423;23;20054;-86
2023/05/24 04:08:01;;;;;;;28.23;10.95;;;;;;;;;;6215644;23;20009;-86
2023/05/24 04:10:27;;;;;;;25.33;11.32;;;;;;;;;;6213962;23;20005;-86
2023/05/24 04:12:52;;;;;;;23.25;11.85;;;;;;;;;;6215638;23;20005;-86
2023/05/24 04:15:18;;;;;;;19.60;10.73;;;;;;;;;;6215657;23;20000;-86
2023/05/24 04:17:44;;;;;;;21.45;11.88;;;;;;;;;;6216188;23;20005;-86
2023/05/24 04:20:10;;;;;;;23.88;10.90;;;;;;;;;;6214213;23;20035;-85
2023/05/24 04:22:35;;;;;;;23.52;10.68;;;;;;;;;;6214219;23;20005;-86
2023/05/24 04:25:02;;;;;;;21.80;10.85;;;;;;;;;;6215986;23;20007;-86
2023/05/24 04:27:29;;;;;;;19.65;11.15;;;;;;;;;;6215659;23;20062;-86
2023/05/24 04:29:54;;;;;;;23.50;10.82;;;;;;;;;;6215078;23;20080;-85
2023/05/24 04:32:20;;;;;;;30.50;11.38;;;;;;;;;;6215534;23;20016;-86
2023/05/24 04:34:45;;;;;;;27.63;12.25;;;;;;;;;;6215130;23;20009;-87
2023/05/24 04:37:12;;;;;;;32.67;12.98;;;;;;;;;;6215342;23;20004;-86
2023/05/24 04:39:38;;;;;;;30.50;11.43;;;;;;;;;;6215640;23;20007;-86
2023/05/24 04:42:04;;;;;;;23.58;11.88;;;;;;;;;;6215182;23;20040;-86
2023/05/24 04:44:29;;;;;;;25.20;11.32;;;;;;;;;;6188904;23;20001;-86
2023/05/24 04:46:54;;;;;;;24.70;11.18;;;;;;;;;;6215456;23;20009;-86
2023/05/24 04:49:21;;;;;;;21.33;11.32;;;;;;;;;;6215054;23;20079;-86
2023/05/24 04:51:46;;;;;;;23.92;11.60;;;;;;;;;;6188604;23;20008;-86
2023/05/24 04:54:12;;;;;;;23.98;10.88;;;;;;;;;;6188817;23;20001;-86
2023/05/24 04:56:37;;;;;;;22.23;11.10;;;;;;;;;;6213758;23;20008;-86
2023/05/24 04:59:05;;;;;;;21.55;10.93;;;;;;;;;;6214124;23;20059;-86
2023/05/24 05:01:31;;;;;;;21.25;11.10;;;;;;;;;;6213859;23;20013;-85
2023/05/24 05:03:56;;;;;;;21.48;10.52;;;;;;;;;;6189144;23;20351;-86
2023/05/24 05:06:22;;;;;;;20.83;10.48;;;;;;;;;;6213897;23;20079;-87
2023/05/24 05:08:47;;;;;;;21.67;10.73;;;;;;;;;;6215395;23;20000;-86
2023/05/24 05:11:13;;;;;;;21.45;10.50;;;;;;;;;;6215348;23;20083;-86
2023/05/24 05:13:39;;;;;;;20.75;10.63;;;;;;;;;;6213505;23;19997;-87
2023/05/24 05:16:04;;;;;;;19.80;11.07;;;;;;;;;;6214717;23;20095;-86
2023/05/24 05:18:30;;;;;;;20.42;10.25;;;;;;;;;;6215171;23;19997;-86
2023/05/24 05:20:56;;;;;;;23.02;10.35;;;;;;;;;;6215048;23;20403;-85
2023/05/24 05:23:21;;;;;;;23.55;10.70;;;;;;;;;;6214266;23;20007;-85
2023/05/24 05:25:47;;;;;;;24.30;10.90;;;;;;;;;;6215269;23;20036;-85
2023/05/24 05:28:12;;;;;;;19.30;10.80;;;;;;;;;;6214806;23;20000;-86
2023/05/24 05:30:37;;;;;;;21.77;10.20;;;;;;;;;;6214895;23;20031;-86
2023/05/24 05:33:04;;;;;;;20.27;10.90;;;;;;;;;;6215007;23;19996;-86
2023/05/24 05:35:30;;;;;;;18.05;10.45;;;;;;;;;;6215237;23;20063;-86
2023/05/24 05:37:56;;;;;;;24.08;11.60;;;;;;;;;;6213882;23;20384;-86
2023/05/24 05:40:21;;;;;;;18.85;10.30;;;;;;;;;;6215176;23;20000;-86
2023/05/24 05:42:47;;;;;;;22.23;11.63;;;;;;;;;;6215007;23;20007;-86
2023/05/24 05:45:13;;;;;;;19.50;11.45;;;;;;;;;;6215557;23;20083;-86
2023/05/24 05:47:39;;;;;;;18.58;10.70;;;;;;;;;;6215121;23;20424;-85
2023/05/24 05:50:05;;;;;;;21.27;10.45;;;;;;;;;;6213157;23;20075;-84
2023/05/24 05:52:31;;;;;;;22.33;10.80;;;;;;;;;;6214983;23;20012;-85
2023/05/24 05:54:58;;;;;;;24.77;11.20;;;;;;;;;;6214430;23;20004;-84
2023/05/24 05:57:23;;;;;;;16.38;10.43;;;;;;;;;;6214517;23;20012;-84
2023/05/24 05:59:49;;;;;;;22.63;10.30;;;;;;;;;;6215011;23;20004;-84
2023/05/24 06:02:14;;;;;;;21.10;10.65;;;;;;;;;;6214624;23;20008;-84
2023/05/24 06:04:40;;;;;;;16.92;9.82;;;;;;;;;;6215042;23;20066;-85
2023/05/24 06:07:05;;;;;;;16.38;9.88;;;;;;;;;;6188852;23;20078;-85
2023/05/24 06:09:31;;;;;;;24.45;9.70;;;;;;;;;;6216557;23;20095;-84
2023/05/24 06:11:56;;;;;;;15.90;9.65;;;;;;;;;;6218443;23;20050;-85
2023/05/24 06:14:23;;;;;;;14.98;9.75;;;;;;;;;;6195533;23;20440;-84
2023/05/24 06:16:51;;;;;;;18.65;9.30;;;;;;;;;;6240723;23;20005;-83
2023/05/24 06:19:17;;;;;;;17.17;9.60;;;;;;;;;;6243564;23;19997;-82
2023/05/24 06:21:46;;;;;;;18.80;9.70;;;;;;;;;;6242636;23;20032;-83
2023/05/24 06:24:19;;;;;;;17.80;8.38;;;;;;;;;;6242771;23;20009;-84
2023/05/24 06:26:45;;;;;;;15.75;9.38;;;;;;;;;;6242993;23;19993;-83
2023/05/24 06:29:11;;;;;;;13.50;8.93;;;;;;;;;;6240715;23;20009;-84
2023/05/24 06:31:36;;;;;;;18.75;9.98;;;;;;;;;;6238933;23;20027;-84
2023/05/24 06:34:02;;;;;;;14.48;9.07;;;;;;;;;;6239208;23;20048;-85
2023/05/24 06:36:27;;;;;;;17.80;9.13;;;;;;;;;;6220109;23;20059;-85
2023/05/24 06:38:52;;;;;;;13.60;8.23;;;;;;;;;;6214175;23;20371;-84
2023/05/24 06:41:18;;;;;;;13.45;8.77;;;;;;;;;;6214510;23;20348;-83
2023/05/24 06:43:44;;;;;;;10.20;7.15;;;;;;;;;;6212790;23;20343;-84
2023/05/24 06:46:10;;;;;;;12.98;8.02;;;;;;;;;;6214299;23;20012;-84
2023/05/24 06:48:36;;;;;;;11.38;7.72;;;;;;;;;;6214410;23;20079;-84
2023/05/24 06:51:01;;;;;;;14.23;8.30;;;;;;;;;;6214339;23;20009;-84
2023/05/24 06:53:26;;;;;;;12.25;7.95;;;;;;;;;;6213371;23;20008;-84
2023/05/24 06:55:52;;;;;;;11.73;7.95;;;;;;;;;;6213574;23;20010;-84
2023/05/24 06:58:21;;;;;;;12.32;7.68;;;;;;;;;;6212397;23;20004;-84
2023/05/24 07:00:47;;;;;;;11.05;8.07;;;;;;;;;;6214187;23;20416;-85
2023/05/24 07:03:13;;;;;;;15.70;7.70;;;;;;;;;;6212093;23;20040;-84
2023/05/24 07:05:38;;;;;;;13.35;8.02;;;;;;;;;;6212630;23;20008;-84
2023/05/24 07:08:04;;;;;;;11.65;7.45;;;;;;;;;;6212065;23;20005;-84
2023/05/24 07:10:29;;;;;;;10.82;7.68;;;;;;;;;;6214211;23;20058;-83
2023/05/24 07:12:55;;;;;;;15.85;7.93;;;;;;;;;;6213811;23;20458;-83
2023/05/24 07:15:20;;;;;;;12.63;8.20;;;;;;;;;;6214480;23;20008;-85
2023/05/24 07:17:47;;;;;;;10.65;7.50;;;;;;;;;;6213865;23;20012;-84
2023/05/24 07:20:12;;;;;;;9.57;8.25;;;;;;;;;;6214247;23;20340;-84
2023/05/24 07:22:38;;;;;;;11.48;7.97;;;;;;;;;;6187328;23;20024;-84
2023/05/24 07:25:04;;;;;;;14.20;7.78;;;;;;;;;;6212363;23;20082;-84
2023/05/24 07:27:29;;;;;;;10.93;7.32;;;;;;;;;;6213951;23;20005;-83
2023/05/24 07:29:55;;;;;;;12.82;7.32;;;;;;;;;;6214727;23;20008;-85
2023/05/24 07:32:24;;;;;;;15.23;7.80;;;;;;;;;;6215466;23;20448;-86
2023/05/24 07:34:50;;;;;;;13.85;7.63;;;;;;;;;;6236061;23;20035;-83
2023/05/24 07:37:16;;;;;;;12.15;7.90;;;;;;;;;;6207977;23;20060;-85
2023/05/24 07:39:41;;;;;;;10.55;8.05;;;;;;;;;;6226203;23;20011;-83
2023/05/24 07:42:07;;;;;;;14.25;8.20;;;;;;;;;;6216947;23;20036;-86
2023/05/24 07:44:32;;;;;;;14.32;8.18;;;;;;;;;;6216495;23;20011;-84
2023/05/24 07:46:58;;;;;;;10.77;8.18;;;;;;;;;;6215835;23;20495;-85
2023/05/24 07:49:23;;;;;;;12.13;8.40;;;;;;;;;;6214746;23;20108;-87
2023/05/24 07:51:49;;;;;;;11.38;7.35;;;;;;;;;;6214316;23;20309;-86
2023/05/24 07:54:14;;;;;;;7.35;6.32;;;;;;;;;;6216057;23;20057;-87
2023/05/24 07:56:43;;;;;;;7.38;5.95;;;;;;;;;;6215963;23;20009;-87
2023/05/24 07:59:08;;;;;;;14.55;5.97;;;;;;;;;;6225156;23;20028;-86
2023/05/24 08:01:34;;;;;;;13.30;8.10;;;;;;;;;;6216536;23;20012;-86
2023/05/24 08:04:02;;;;;;;10.93;8.10;;;;;;;;;;6214610;23;20016;-86
2023/05/24 08:06:28;;;;;;;10.37;7.40;;;;;;;;;;6213710;23;20014;-84
2023/05/24 08:08:53;;;;;;;14.45;7.00;;;;;;;;;;6214166;23;20001;-84
2023/05/24 08:11:19;;;;;;;11.30;6.53;;;;;;;;;;6215703;23;20012;-84
2023/05/24 08:13:44;;;;;;;11.82;7.45;;;;;;;;;;6215974;23;20011;-84
2023/05/24 08:16:10;;;;;;;11.45;7.40;;;;;;;;;;6213690;23;20036;-85
2023/05/24 08:18:35;;;;;;;15.68;8.20;;;;;;;;;;6215731;23;20446;-84
2023/05/24 08:21:01;;;;;;;11.32;7.72;;;;;;;;;;6215471;23;20051;-83
2023/05/24 08:23:31;;;;;;;16.23;7.78;;;;;;;;;;6213740;23;20000;-85
2023/05/24 08:25:57;;;;;;;11.50;7.60;;;;;;;;;;6213931;23;20304;-85
2023/05/24 08:28:22;;;;;;;13.15;8.15;;;;;;;;;;6215084;23;20000;-83
2023/05/24 08:30:48;;;;;;;13.88;7.97;;;;;;;;;;6213478;23;20009;-84
2023/05/24 08:33:13;;;;;;;15.32;9.07;;;;;;;;;;6215368;23;20011;-84
2023/05/24 08:35:39;;;;;;;10.98;8.52;;;;;;;;;;6214946;23;20001;-83
2023/05/24 08:38:05;;;;;;;12.57;8.13;;;;;;;;;;6215396;23;20337;-83
2023/05/24 08:40:30;;;;;;;15.30;7.95;;;;;;;;;;6188822;23;19997;-84
2023/05/24 08:43:00;;;;;;;9.93;8.20;;;;;;;;;;6213801;23;20012;-84
2023/05/24 08:45:26;;;;;;;13.15;8.90;;;;;;;;;;6163995;23;19992;-86
2023/05/24 08:47:51;;;;;;;16.33;8.63;;;;;;;;;;6163856;23;20009;-85
2023/05/24 08:50:17;;;;;;;16.20;8.20;;;;;;;;;;6212892;23;20008;-86
2023/05/24 08:52:42;;;;;;;9.68;8.23;;;;;;;;;;6213346;23;20064;-86
2023/05/24 08:55:08;;;;;;;16.05;8.77;;;;;;;;;;6215071;23;20008;-85
2023/05/24 08:57:34;;;;;;;14.90;8.35;;;;;;;;;;6213469;23;20005;-84
2023/05/24 08:59:59;;;;;;;16.13;8.30;;;;;;;;;;6188764;23;19997;-84
2023/05/24 09:02:25;;;;;;;13.50;7.72;;;;;;;;;;6213346;23;20079;-85
2023/05/24 09:04:51;;;;;;;13.50;7.63;;;;;;;;;;6213302;23;20364;-85
2023/05/24 09:07:19;;;;;;;10.10;7.45;;;;;;;;;;6213178;23;20416;-85
2023/05/24 09:09:52;;;;;;;12.90;7.80;;;;;;;;;;6213558;23;20011;-84
2023/05/24 09:12:18;;;;;;;8.93;6.68;;;;;;;;;;6215111;23;20626;-85
2023/05/24 09:14:45;;;;;;;16.25;7.18;;;;;;;;;;6188133;23;20001;-86
2023/05/24 09:17:11;;;;;;;12.65;7.18;;;;;;;;;;6188921;23;20023;-86
2023/05/24 09:19:37;;;;;;;12.52;7.53;;;;;;;;;;6214652;23;20004;-85
2023/05/24 09:22:03;;;;;;;17.30;7.65;;;;;;;;;;6188576;23;20001;-86
2023/05/24 09:24:28;;;;;;;14.75;7.88;;;;;;;;;;6213474;23;20004;-84
2023/05/24 09:26:54;;;;;;;13.75;7.78;;;;;;;;;;6215030;23;20001;-86
2023/05/24 09:29:23;;;;;;;11.00;6.90;;;;;;;;;;6213140;23;20012;-85
2023/05/24 09:31:48;;;;;;;10.88;7.35;;;;;;;;;;6214029;23;20007;-84
2023/05/24 09:34:15;;;;;;;8.32;6.72;;;;;;;;;;6214320;23;20356;-86
2023/05/24 09:36:41;;;;;;;8.93;6.70;;;;;;;;;;6163526;23;20008;-84
2023/05/24 09:39:08;;;;;;;12.13;6.78;;;;;;;;;;6215001;23;20012;-86
2023/05/24 09:41:37;;;;;;;7.35;6.22;;;;;;;;;;6213030;23;20045;-85
2023/05/24 09:44:03;;;;;;;9.13;6.32;;;;;;;;;;6213411;23;20005;-85
2023/05/24 09:46:28;;;;;;;9.82;6.47;;;;;;;;;;6188585;23;20005;-85
2023/05/24 09:49:02;;;;;;;8.13;6.32;;;;;;;;;;6212952;23;20016;-83
2023/05/24 09:51:28;;;;;;;7.97;6.07;;;;;;;;;;6214450;23;20059;-85
2023/05/24 09:53:56;;;;;;;8.30;5.65;;;;;;;;;;6214748;23;20004;-85
2023/05/24 09:56:22;;;;;;;10.73;5.80;;;;;;;;;;6214343;23;20011;-85
2023/05/24 09:58:47;;;;;;;6.82;5.03;;;;;;;;;;6214772;23;20035;-86
2023/05/24 10:01:15;;;;;;;10.70;5.85;;;;;;;;;;6213064;23;20012;-85
2023/05/24 10:03:57;;;;;;;8.55;5.65;;;;;;;;;;6213523;23;20000;-84
2023/05/24 10:06:23;;;;;;;10.57;5.97;;;;;;;;;;6215616;23;20000;-85
2023/05/24 10:08:49;;;;;;;10.23;6.13;;;;;;;;;;6215227;23;20454;-86
2023/05/24 10:11:14;;;;;;;8.13;6.03;;;;;;;;;;6214464;23;20005;-84
2023/05/24 10:13:40;;;;;;;8.05;5.28;;;;;;;;;;6213931;23;20428;-85
2023/05/24 10:16:06;;;;;;;6.47;5.35;;;;;;;;;;6212521;23;20015;-84
2023/05/24 10:18:32;;;;;;;7.53;5.65;;;;;;;;;;6213208;23;20039;-86
2023/05/24 10:20:57;;;;;;;8.85;5.18;;;;;;;;;;6215098;23;20008;-86
2023/05/24 10:23:23;;;;;;;7.53;5.15;;;;;;;;;;6213172;23;20000;-85
2023/05/24 10:25:52;;;;;;;10.00;5.25;;;;;;;;;;6213038;23;20032;-85
2023/05/24 10:28:17;;;;;;;13.50;5.28;;;;;;;;;;6213279;23;20058;-85
2023/05/24 10:31:22;;;;;;;7.28;4.85;;;;;;;;;;6212398;23;20016;-85
2023/05/24 10:33:50;;;;;;;10.90;5.15;;;;;;;;;;6134407;23;20066;-86
2023/05/24 10:36:15;;;;;;;7.10;5.03;;;;;;;;;;6202679;23;20415;-85
2023/05/24 10:38:41;;;;;;;11.32;5.32;;;;;;;;;;6213365;23;20000;-85
2023/05/24 10:41:07;;;;;;;6.85;5.15;;;;;;;;;;6212996;23;20005;-85
2023/05/24 10:43:34;;;;;;;11.63;6.43;;;;;;;;;;6212851;23;19997;-87
2023/05/24 10:46:01;;;;;;;9.23;5.20;;;;;;;;;;6212983;23;20126;-85
2023/05/24 10:48:26;;;;;;;9.02;5.20;;;;;;;;;;6214246;23;20075;-86
2023/05/24 10:50:52;;;;;;;9.40;5.40;;;;;;;;;;6214336;23;20035;-85
2023/05/24 10:53:19;;;;;;;10.38;5.80;;;;;;;;;;6214528;23;20058;-85
2023/05/24 10:55:58;;;;;;;7.95;5.40;;;;;;;;;;6212729;23;20348;-86
2023/05/24 10:58:34;;;;;;;11.63;5.68;;;;;;;;;;6212431;23;20007;-84
2023/05/24 11:00:59;;;;;;;6.63;5.28;;;;;;;;;;6213328;23;20000;-85
2023/05/24 11:03:25;;;;;;;9.10;6.10;;;;;;;;;;6213750;23;19997;-86
2023/05/24 11:05:53;;;;;;;8.35;6.03;;;;;;;;;;6188752;23;20082;-85
2023/05/24 11:08:23;;;;;;;7.97;5.60;;;;;;;;;;6214019;23;20040;-86
2023/05/24 11:10:48;;;;;;;9.75;5.88;;;;;;;;;;6215631;23;20020;-86
2023/05/24 11:13:14;;;;;;;11.02;6.03;;;;;;;;;;6188899;23;20051;-86
2023/05/24 11:15:48;;;;;;;8.27;5.80;;;;;;;;;;6214425;23;20009;-84
2023/05/24 11:18:14;;;;;;;12.77;5.30;;;;;;;;;;6219969;23;20020;-86
2023/05/24 11:20:44;;;;;;;11.18;6.13;;;;;;;;;;6229783;23;20033;-84
2023/05/24 11:23:10;;;;;;;;;;;;;;;;;;6219936;23;20344;-85
2023/05/24 11:25:36;;;;;;;7.38;5.32;;;;;;;;;;6213948;23;19903;-85
2023/05/24 11:28:01;;;;;;;16.23;5.43;;;;;;;;;;6214134;23;20000;-85
2023/05/24 11:30:27;;;;;;;10.15;5.65;;;;;;;;;;6212042;23;20453;-85
2023/05/24 11:32:52;;;;;;;8.25;6.10;;;;;;;;;;6212551;23;20005;-83
2023/05/24 11:35:21;;;;;;;8.50;5.70;;;;;;;;;;6217793;23;20027;-83
2023/05/24 11:37:46;;;;;;;11.48;5.78;;;;;;;;;;6215106;23;20092;-86
2023/05/24 11:40:12;;;;;;;11.27;6.13;;;;;;;;;;6212781;23;20001;-87
2023/05/24 11:42:38;;;;;;;9.48;5.82;;;;;;;;;;6212729;23;20039;-85
2023/05/24 11:45:05;;;;;;;10.90;5.65;;;;;;;;;;6212358;23;20000;-87
2023/05/24 11:47:34;;;;;;;9.90;5.80;;;;;;;;;;6212714;23;20004;-86
2023/05/24 11:50:00;;;;;;;14.15;5.63;;;;;;;;;;6213665;23;20444;-85
2023/05/24 11:52:25;;;;;;;8.27;5.32;;;;;;;;;;6213478;23;19993;-86
2023/05/24 11:54:51;;;;;;;7.68;5.60;;;;;;;;;;6215088;23;20000;-87
2023/05/24 11:57:18;;;;;;;9.55;4.85;;;;;;;;;;6234551;23;20008;-85
2023/05/24 11:59:43;;;;;;;9.07;5.10;;;;;;;;;;6199732;23;20058;-85
2023/05/24 12:02:09;;;;;;;7.88;5.50;;;;;;;;;;6214207;23;20008;-84
2023/05/24 12:04:34;;;;;;;8.00;5.25;;;;;;;;;;6214015;23;20004;-86
2023/05/24 12:07:00;;;;;;;7.13;5.20;;;;;;;;;;6213701;23;20032;-86
2023/05/24 12:09:25;;;;;;;7.57;4.93;;;;;;;;;;6212303;23;20005;-86
2023/05/24 12:11:51;;;;;;;7.93;5.35;;;;;;;;;;6193710;23;20059;-86
2023/05/24 12:14:19;;;;;;;8.35;5.00;;;;;;;;;;6212571;23;20075;-84
2023/05/24 12:16:45;;;;;;;9.40;5.18;;;;;;;;;;6219497;23;20012;-86
2023/05/24 12:19:20;;;;;;;6.90;4.88;;;;;;;;;;6212313;23;20001;-86
2023/05/24 12:21:45;;;;;;;12.50;4.50;;;;;;;;;;6213937;23;20012;-86
2023/05/24 12:24:12;;;;;;;5.63;4.78;;;;;;;;;;6213766;23;20138;-87
2023/05/24 12:26:46;;;;;;;6.20;4.47;;;;;;;;;;6213422;23;20440;-85
2023/05/24 12:29:11;;;;;;;5.72;4.43;;;;;;;;;;6215140;23;20001;-86
2023/05/24 12:31:40;;;;;;;11.23;4.75;;;;;;;;;;6215505;23;20004;-85
2023/05/24 12:34:12;;;;;;;8.88;4.50;;;;;;;;;;6213903;23;20012;-87
2023/05/24 12:36:38;;;;;;;6.50;4.75;;;;;;;;;;6213635;23;20008;-85
2023/05/24 12:39:17;;;;;;;7.72;4.53;;;;;;;;;;6216216;23;20007;-86
2023/05/24 12:41:42;;;;;;;9.05;4.72;;;;;;;;;;6233487;23;20001;-85
2023/05/24 12:44:09;;;;;;;5.68;4.53;;;;;;;;;;6219857;23;20051;-86
2023/05/24 12:46:35;;;;;;;9.82;5.13;;;;;;;;;;6215180;23;20007;-85
2023/05/24 12:49:03;;;;;;;6.70;4.65;;;;;;;;;;6189026;23;20004;-86
2023/05/24 12:51:29;;;;;;;7.85;4.90;;;;;;;;;;6215764;23;20008;-86
2023/05/24 12:53:54;;;;;;;8.05;5.22;;;;;;;;;;6188466;23;20011;-86
2023/05/24 12:56:20;;;;;;;7.60;4.93;;;;;;;;;;6214308;23;20004;-86
2023/05/24 12:58:46;;;;;;;9.50;4.85;;;;;;;;;;6217906;23;20005;-83
2023/05/24 13:01:12;;;;;;;10.30;5.00;;;;;;;;;;6229556;23;20004;-85
2023/05/24 13:03:38;;;;;;;5.85;4.72;;;;;;;;;;6241170;23;19989;-85
2023/05/24 13:06:05;;;;;;;8.88;4.65;;;;;;;;;;6235723;23;20012;-85
2023/05/24 13:08:30;;;;;;;6.28;4.90;;;;;;;;;;6190595;23;20063;-85
2023/05/24 13:10:56;;;;;;;11.68;5.22;;;;;;;;;;6213595;23;20000;-86
2023/05/24 13:13:23;;;;;;;7.50;4.47;;;;;;;;;;6214963;23;20451;-85
2023/05/24 13:15:48;;;;;;;9.75;4.78;;;;;;;;;;6215268;23;20036;-86
2023/05/24 13:18:14;;;;;;;8.60;4.90;;;;;;;;;;6215311;23;20011;-86
2023/05/24 13:20:40;;;;;;;8.23;4.88;;;;;;;;;;6215285;23;20007;-86
2023/05/24 13:23:06;;;;;;;5.47;4.53;;;;;;;;;;6213445;23;20000;-85
2023/05/24 13:25:31;;;;;;;6.03;4.68;;;;;;;;;;6214925;23;20059;-86
2023/05/24 13:27:57;;;;;;;7.65;5.07;;;;;;;;;;6214960;23;20384;-85
2023/05/24 13:30:26;;;;;;;8.85;5.03;;;;;;;;;;6213294;23;20017;-84
2023/05/24 13:32:55;;;;;;;6.00;4.75;;;;;;;;;;6213332;23;20000;-84
2023/05/24 13:35:21;;;;;;;9.98;4.82;;;;;;;;;;6214521;23;20447;-86
2023/05/24 13:37:47;;;;;;;9.07;4.90;;;;;;;;;;6214497;23;19997;-85
2023/05/24 13:40:12;;;;;;;9.82;4.70;;;;;;;;;;6214696;23;20007;-85
2023/05/24 13:42:38;;;;;;;11.88;4.88;;;;;;;;;;6214886;23;20001;-84
2023/05/24 13:45:04;;;;;;;7.78;5.18;;;;;;;;;;6214136;23;20424;-86
2023/05/24 13:47:29;;;;;;;6.30;4.55;;;;;;;;;;6164137;23;20413;-86
2023/05/24 13:49:56;;;;;;;9.38;4.70;;;;;;;;;;6214632;23;20076;-86
2023/05/24 13:52:21;;;;;;;6.78;4.93;;;;;;;;;;6214998;23;20007;-86
2023/05/24 13:54:47;;;;;;;6.05;4.55;;;;;;;;;;6214196;23;20001;-86
2023/05/24 13:57:13;;;;;;;7.07;5.00;;;;;;;;;;6213493;23;20146;-84
2023/05/24 13:59:39;;;;;;;13.95;5.00;;;;;;;;;;6214779;23;20020;-85
2023/05/24 14:02:04;;;;;;;6.28;4.50;;;;;;;;;;6214721;23;20005;-86
2023/05/24 14:04:30;;;;;;;8.13;4.80;;;;;;;;;;6214378;23;20000;-86
2023/05/24 14:06:56;;;;;;;5.70;4.88;;;;;;;;;;6215012;23;20008;-85
2023/05/24 14:09:22;;;;;;;8.93;5.10;;;;;;;;;;6214399;23;20004;-85
2023/05/24 14:11:48;;;;;;;7.82;5.00;;;;;;;;;;6213080;23;20000;-85
2023/05/24 14:14:13;;;;;;;10.43;5.25;;;;;;;;;;6214383;23;20442;-86
2023/05/24 14:16:39;;;;;;;7.85;4.65;;;;;;;;;;6214639;23;20004;-85
2023/05/24 14:19:04;;;;;;;6.72;5.07;;;;;;;;;;6213075;23;20399;-86
2023/05/24 14:21:31;;;;;;;7.60;5.32;;;;;;;;;;6214690;23;20004;-85
2023/05/24 14:23:56;;;;;;;10.13;4.97;;;;;;;;;;6214012;23;20032;-85
2023/05/24 14:26:22;;;;;;;6.85;4.90;;;;;;;;;;6187895;23;20067;-87